createdAt,value
2023-01-21T00:00:06.376Z,31.90
2023-01-21T00:01:06.364Z,32.20
2023-01-21T00:02:06.381Z,30.80
2023-01-21T00:03:06.380Z,31.10
2023-01-21T00:04:06.329Z,28.90
2023-01-21T00:05:06.309Z,31.40
2023-01-21T00:06:06.314Z,29.40
2023-01-21T00:07:06.282Z,28.60
2023-01-21T00:08:06.279Z,30.80
2023-01-21T00:09:06.258Z,31.70
2023-01-21T00:10:06.250Z,31.40
2023-01-21T00:11:06.236Z,30.80
2023-01-21T00:12:06.221Z,30.70
2023-01-21T00:13:06.211Z,30.10
2023-01-21T00:14:06.215Z,32.00
2023-01-21T00:15:06.190Z,31.30
2023-01-21T00:16:06.223Z,28.90
2023-01-21T00:17:06.160Z,31.20
2023-01-21T00:18:06.157Z,32.30
2023-01-21T00:19:06.139Z,33.30
2023-01-21T00:20:06.140Z,30.80
2023-01-21T00:21:06.109Z,29.70
2023-01-21T00:22:06.101Z,27.20
2023-01-21T00:23:06.092Z,30.60
2023-01-21T00:24:06.082Z,30.00
2023-01-21T00:25:06.056Z,32.90
2023-01-21T00:26:06.045Z,30.60
2023-01-21T00:27:06.042Z,29.90
2023-01-21T00:28:06.026Z,30.60
2023-01-21T00:29:06.019Z,30.70
2023-01-21T00:30:06.002Z,30.00
2023-01-21T00:31:06.158Z,28.70
2023-01-21T00:32:05.971Z,31.90
2023-01-21T00:33:05.963Z,31.80
2023-01-21T00:34:05.955Z,32.40
2023-01-21T00:35:05.933Z,28.00
2023-01-21T00:36:05.923Z,34.20
2023-01-21T00:37:05.911Z,31.70
2023-01-21T00:38:05.894Z,31.30
2023-01-21T00:39:05.903Z,31.00
2023-01-21T00:40:05.882Z,32.90
2023-01-21T00:41:05.891Z,31.10
2023-01-21T00:42:05.847Z,30.40
2023-01-21T00:43:05.833Z,29.60
2023-01-21T00:44:05.825Z,28.70
2023-01-21T00:45:05.823Z,30.00
2023-01-21T00:46:05.872Z,31.10
2023-01-21T00:47:05.787Z,32.80
2023-01-21T00:48:05.771Z,29.00
2023-01-21T00:49:05.747Z,30.70
2023-01-21T00:50:05.759Z,31.40
2023-01-21T00:51:05.921Z,32.10
2023-01-21T00:52:05.715Z,29.50
2023-01-21T00:53:05.700Z,34.80
2023-01-21T00:54:05.692Z,32.10
2023-01-21T00:55:05.681Z,34.40
2023-01-21T00:56:05.666Z,29.80
2023-01-21T00:57:05.648Z,31.50
2023-01-21T00:58:05.641Z,31.00
2023-01-21T00:59:05.622Z,29.50
2023-01-21T01:00:05.628Z,28.60
2023-01-21T01:01:05.595Z,32.30
2023-01-21T01:02:05.589Z,30.80
2023-01-21T01:03:05.582Z,31.10
2023-01-21T01:04:05.563Z,30.00
2023-01-21T01:05:05.553Z,29.70
2023-01-21T01:06:05.550Z,31.20
2023-01-21T01:07:05.523Z,30.80
2023-01-21T01:08:05.513Z,30.90
2023-01-21T01:09:05.500Z,28.10
2023-01-21T01:10:05.503Z,28.90
2023-01-21T01:11:05.477Z,27.50
2023-01-21T01:12:05.473Z,25.70
2023-01-21T01:13:05.461Z,29.40
2023-01-21T01:14:05.435Z,27.60
2023-01-21T01:15:05.418Z,28.20
2023-01-21T01:16:05.504Z,28.70
2023-01-21T01:17:05.404Z,30.00
2023-01-21T01:18:05.390Z,26.50
2023-01-21T01:19:05.375Z,28.90
2023-01-21T01:20:05.364Z,28.60
2023-01-21T01:21:05.356Z,27.20
2023-01-21T01:22:05.351Z,26.40
2023-01-21T01:23:05.325Z,25.80
2023-01-21T01:24:05.309Z,30.90
2023-01-21T01:25:05.302Z,26.70
2023-01-21T01:26:05.308Z,30.40
2023-01-21T01:27:05.267Z,29.20
2023-01-21T01:28:05.271Z,29.30
2023-01-21T01:29:05.246Z,25.10
2023-01-21T01:30:05.236Z,25.90
2023-01-21T01:31:05.334Z,26.80
2023-01-21T01:32:05.237Z,28.10
2023-01-21T01:33:05.195Z,28.30
2023-01-21T01:34:05.192Z,28.40
2023-01-21T01:35:05.168Z,28.10
2023-01-21T01:36:05.179Z,26.70
2023-01-21T01:37:05.166Z,28.50
2023-01-21T01:38:05.131Z,30.50
2023-01-21T01:39:05.119Z,29.20
2023-01-21T01:40:05.122Z,32.30
2023-01-21T01:41:05.109Z,30.40
2023-01-21T01:42:05.103Z,30.50
2023-01-21T01:43:05.067Z,30.60
2023-01-21T01:44:05.077Z,31.30
2023-01-21T01:45:05.046Z,27.60
2023-01-21T01:46:05.075Z,30.20
2023-01-21T01:47:05.034Z,29.20
2023-01-21T01:48:05.003Z,28.70
2023-01-21T01:49:04.991Z,28.70
2023-01-21T01:50:04.992Z,26.20
2023-01-21T01:51:05.012Z,31.70
2023-01-21T01:52:04.978Z,28.70
2023-01-21T01:53:04.949Z,31.20
2023-01-21T01:54:04.943Z,30.50
2023-01-21T01:55:04.926Z,30.50
2023-01-21T01:56:04.927Z,29.10
2023-01-21T01:57:04.899Z,30.00
2023-01-21T01:58:04.882Z,27.20
2023-01-21T01:59:04.868Z,25.90
2023-01-21T02:00:04.882Z,26.30
2023-01-21T02:01:04.841Z,31.00
2023-01-21T02:02:04.837Z,31.50
2023-01-21T02:03:04.834Z,26.80
2023-01-21T02:04:04.803Z,27.90
2023-01-21T02:05:04.788Z,29.30
2023-01-21T02:06:04.790Z,27.90
2023-01-21T02:07:04.779Z,30.00
2023-01-21T02:08:04.752Z,27.30
2023-01-21T02:09:04.747Z,29.40
2023-01-21T02:10:04.729Z,29.00
2023-01-21T02:11:04.711Z,26.00
2023-01-21T02:12:04.720Z,28.10
2023-01-21T02:13:04.691Z,29.00
2023-01-21T02:14:04.676Z,26.20
2023-01-21T02:15:04.667Z,29.30
2023-01-21T02:16:04.686Z,28.00
2023-01-21T02:17:04.644Z,30.70
2023-01-21T02:18:04.638Z,29.50
2023-01-21T02:19:04.609Z,29.90
2023-01-21T02:20:04.597Z,29.00
2023-01-21T02:21:04.614Z,29.40
2023-01-21T02:22:04.589Z,27.30
2023-01-21T02:23:04.563Z,30.00
2023-01-21T02:24:04.549Z,30.50
2023-01-21T02:25:04.536Z,28.00
2023-01-21T02:26:04.521Z,28.60
2023-01-21T02:27:04.520Z,33.70
2023-01-21T02:28:04.515Z,30.30
2023-01-21T02:29:04.483Z,30.40
2023-01-21T02:30:04.497Z,31.30
2023-01-21T02:31:04.589Z,27.20
2023-01-21T02:32:04.456Z,28.50
2023-01-21T02:33:04.447Z,29.20
2023-01-21T02:34:04.424Z,29.60
2023-01-21T02:35:04.409Z,30.10
2023-01-21T02:36:04.410Z,30.40
2023-01-21T02:37:04.379Z,31.60
2023-01-21T02:38:04.375Z,31.10
2023-01-21T02:39:04.359Z,29.10
2023-01-21T02:40:04.349Z,27.50
2023-01-21T02:41:04.325Z,30.80
2023-01-21T02:42:04.331Z,29.40
2023-01-21T02:43:04.314Z,31.30
2023-01-21T02:44:04.290Z,27.60
2023-01-21T02:45:04.294Z,29.00
2023-01-21T02:46:04.271Z,29.80
2023-01-21T02:47:04.252Z,30.00
2023-01-21T02:48:04.280Z,31.30
2023-01-21T02:49:04.233Z,32.20
2023-01-21T02:50:04.219Z,32.40
2023-01-21T02:51:04.257Z,30.40
2023-01-21T02:52:04.204Z,30.00
2023-01-21T02:53:04.190Z,28.90
2023-01-21T02:54:04.190Z,29.50
2023-01-21T02:55:04.160Z,32.50
2023-01-21T02:56:04.140Z,31.50
2023-01-21T02:57:04.126Z,31.50
2023-01-21T02:58:04.120Z,28.60
2023-01-21T02:59:04.112Z,28.50
2023-01-21T03:00:04.101Z,29.90
2023-01-21T03:01:04.167Z,31.80
2023-01-21T03:02:04.094Z,31.40
2023-01-21T03:03:10.548Z,31.00
2023-01-21T03:04:04.231Z,32.80
2023-01-21T03:05:04.033Z,30.40
2023-01-21T03:06:04.022Z,29.30
2023-01-21T03:07:04.029Z,28.50
2023-01-21T03:08:04.034Z,31.30
2023-01-21T03:09:03.975Z,29.10
2023-01-21T03:10:03.997Z,32.00
2023-01-21T03:11:03.957Z,32.90
2023-01-21T03:12:03.943Z,33.10
2023-01-21T03:13:03.954Z,31.00
2023-01-21T03:14:03.927Z,30.70
2023-01-21T03:15:03.922Z,32.70
2023-01-21T03:16:03.987Z,31.20
2023-01-21T03:17:03.902Z,30.50
2023-01-21T03:18:03.878Z,30.90
2023-01-21T03:19:03.862Z,29.60
2023-01-21T03:20:03.869Z,33.90
2023-01-21T03:21:03.848Z,31.70
2023-01-21T03:22:03.839Z,29.10
2023-01-21T03:23:03.841Z,30.80
2023-01-21T03:24:03.794Z,30.80
2023-01-21T03:25:03.805Z,32.00
2023-01-21T03:26:03.778Z,31.40
2023-01-21T03:27:03.758Z,30.40
2023-01-21T03:28:03.765Z,32.20
2023-01-21T03:29:03.740Z,31.20
2023-01-21T03:30:03.774Z,31.70
2023-01-21T03:31:03.791Z,34.10
2023-01-21T03:32:03.697Z,29.70
2023-01-21T03:33:03.683Z,30.00
2023-01-21T03:34:03.676Z,30.50
2023-01-21T03:35:03.660Z,30.80
2023-01-21T03:36:03.657Z,31.20
2023-01-21T03:37:03.637Z,31.50
2023-01-21T03:38:03.625Z,31.90
2023-01-21T03:39:03.607Z,31.90
2023-01-21T03:40:03.607Z,30.60
2023-01-21T03:41:03.579Z,31.80
2023-01-21T03:42:03.591Z,33.30
2023-01-21T03:43:03.586Z,34.80
2023-01-21T03:44:03.569Z,30.90
2023-01-21T03:45:03.539Z,33.40
2023-01-21T03:46:03.584Z,33.40
2023-01-21T03:47:03.518Z,31.90
2023-01-21T03:48:03.518Z,31.80
2023-01-21T03:49:03.492Z,34.40
2023-01-21T03:50:03.485Z,35.50
2023-01-21T03:51:03.519Z,31.70
2023-01-21T03:52:03.439Z,31.30
2023-01-21T03:53:03.436Z,30.10
2023-01-21T03:54:03.417Z,29.40
2023-01-21T03:55:03.404Z,29.10
2023-01-21T03:56:03.406Z,33.90
2023-01-21T03:57:05.967Z,31.50
2023-01-21T03:58:03.375Z,31.50
2023-01-21T03:59:03.370Z,27.80
2023-01-21T04:00:03.357Z,33.40
2023-01-21T04:01:03.455Z,31.50
2023-01-21T04:02:03.396Z,28.70
2023-01-21T04:03:03.306Z,30.80
2023-01-21T04:04:03.296Z,31.30
2023-01-21T04:05:03.320Z,32.50
2023-01-21T04:06:03.305Z,34.60
2023-01-21T04:07:03.320Z,29.70
2023-01-21T04:08:03.245Z,33.30
2023-01-21T04:09:03.240Z,29.60
2023-01-21T04:10:03.226Z,27.80
2023-01-21T04:11:03.222Z,31.40
2023-01-21T04:12:03.207Z,35.40
2023-01-21T04:13:03.194Z,34.40
2023-01-21T04:14:03.179Z,29.70
2023-01-21T04:15:05.469Z,31.80
2023-01-21T04:16:03.176Z,30.80
2023-01-21T04:17:03.140Z,31.00
2023-01-21T04:18:03.155Z,31.40
2023-01-21T04:19:03.121Z,29.80
2023-01-21T04:20:03.102Z,30.90
2023-01-21T04:21:03.079Z,29.90
2023-01-21T04:22:03.075Z,31.10
2023-01-21T04:23:03.072Z,31.80
2023-01-21T04:24:03.049Z,32.30
2023-01-21T04:25:03.046Z,33.90
2023-01-21T04:26:03.025Z,30.90
2023-01-21T04:27:03.042Z,34.50
2023-01-21T04:28:03.012Z,34.30
2023-01-21T04:29:02.993Z,32.00
2023-01-21T04:30:02.980Z,34.60
2023-01-21T04:31:03.016Z,35.10
2023-01-21T04:32:03.058Z,33.60
2023-01-21T04:33:02.956Z,34.70
2023-01-21T04:34:02.922Z,38.30
2023-01-21T04:35:02.915Z,36.40
2023-01-21T04:36:02.907Z,33.50
2023-01-21T04:37:02.904Z,35.80
2023-01-21T04:38:02.886Z,34.90
2023-01-21T04:39:02.883Z,41.30
2023-01-21T04:40:02.863Z,36.30
2023-01-21T04:41:02.844Z,35.20
2023-01-21T04:42:02.870Z,37.00
2023-01-21T04:43:02.820Z,34.30
2023-01-21T04:44:02.806Z,34.90
2023-01-21T04:45:02.791Z,39.80
2023-01-21T04:46:02.877Z,37.80
2023-01-21T04:47:02.822Z,37.60
2023-01-21T04:48:02.751Z,40.00
2023-01-21T04:49:02.749Z,32.60
2023-01-21T04:50:02.728Z,34.50
2023-01-21T04:51:02.760Z,39.00
2023-01-21T04:52:02.696Z,36.00
2023-01-21T04:53:02.716Z,35.10
2023-01-21T04:54:02.683Z,37.00
2023-01-21T04:55:02.666Z,35.10
2023-01-21T04:56:02.662Z,38.20
2023-01-21T04:57:02.639Z,35.90
2023-01-21T04:58:02.624Z,37.00
2023-01-21T04:59:02.620Z,35.80
2023-01-21T05:00:02.627Z,37.70
2023-01-21T05:01:02.619Z,34.60
2023-01-21T05:02:02.643Z,37.60
2023-01-21T05:03:02.582Z,38.80
2023-01-21T05:04:02.576Z,37.00
2023-01-21T05:05:02.548Z,35.50
2023-01-21T05:06:02.528Z,40.50
2023-01-21T05:07:02.522Z,38.30
2023-01-21T05:08:02.508Z,42.00
2023-01-21T05:09:02.499Z,38.70
2023-01-21T05:10:02.486Z,38.10
2023-01-21T05:11:02.462Z,39.30
2023-01-21T05:12:02.448Z,38.00
2023-01-21T05:13:02.447Z,36.70
2023-01-21T05:14:02.441Z,36.30
2023-01-21T05:15:02.424Z,38.80
2023-01-21T05:16:02.453Z,36.80
2023-01-21T05:17:02.495Z,37.60
2023-01-21T05:18:02.370Z,38.40
2023-01-21T05:19:02.376Z,37.40
2023-01-21T05:20:02.354Z,39.10
2023-01-21T05:21:02.347Z,41.20
2023-01-21T05:22:02.327Z,36.50
2023-01-21T05:23:02.327Z,36.00
2023-01-21T05:24:02.332Z,37.00
2023-01-21T05:25:02.288Z,34.30
2023-01-21T05:26:02.291Z,37.50
2023-01-21T05:27:02.274Z,36.80
2023-01-21T05:28:02.266Z,37.20
2023-01-21T05:29:02.245Z,36.90
2023-01-21T05:30:02.236Z,36.80
2023-01-21T05:31:02.391Z,35.80
2023-01-21T05:32:02.281Z,40.70
2023-01-21T05:33:02.187Z,40.30
2023-01-21T05:34:02.247Z,42.60
2023-01-21T05:35:02.177Z,36.20
2023-01-21T05:36:02.146Z,37.70
2023-01-21T05:37:02.170Z,39.60
2023-01-21T05:38:02.127Z,36.10
2023-01-21T05:39:02.112Z,35.30
2023-01-21T05:40:02.126Z,37.30
2023-01-21T05:41:02.114Z,38.00
2023-01-21T05:42:02.103Z,38.10
2023-01-21T05:43:02.063Z,36.40
2023-01-21T05:44:02.056Z,39.60
2023-01-21T05:45:02.076Z,39.20
2023-01-21T05:46:02.092Z,39.00
2023-01-21T05:47:02.018Z,41.00
2023-01-21T05:48:02.045Z,48.30
2023-01-21T05:49:02.024Z,40.20
2023-01-21T05:50:01.985Z,39.60
2023-01-21T05:51:02.020Z,39.80
2023-01-21T05:52:01.955Z,46.30
2023-01-21T05:53:01.954Z,38.80
2023-01-21T05:54:01.924Z,42.90
2023-01-21T05:55:02.954Z,38.20
2023-01-21T05:56:01.905Z,39.00
2023-01-21T05:57:01.896Z,42.10
2023-01-21T05:58:01.885Z,37.70
2023-01-21T05:59:01.891Z,40.70
2023-01-21T06:00:01.899Z,37.70
2023-01-21T06:01:01.841Z,38.00
2023-01-21T06:02:01.900Z,37.10
2023-01-21T06:03:01.831Z,40.20
2023-01-21T06:04:01.808Z,38.60
2023-01-21T06:05:01.801Z,37.60
2023-01-21T06:06:01.808Z,41.00
2023-01-21T06:07:01.766Z,37.70
2023-01-21T06:08:01.754Z,40.10
2023-01-21T06:09:01.761Z,41.40
2023-01-21T06:10:01.766Z,39.10
2023-01-21T06:11:01.762Z,41.10
2023-01-21T06:12:01.699Z,48.30
2023-01-21T06:13:01.694Z,40.30
2023-01-21T06:14:01.680Z,41.40
2023-01-21T06:15:01.666Z,43.70
2023-01-21T06:16:01.732Z,41.60
2023-01-21T06:17:01.642Z,37.20
2023-01-21T06:18:01.625Z,38.10
2023-01-21T06:19:01.629Z,40.40
2023-01-21T06:20:01.622Z,38.60
2023-01-21T06:21:01.613Z,36.90
2023-01-21T06:22:01.613Z,37.70
2023-01-21T06:23:01.570Z,40.10
2023-01-21T06:24:01.549Z,40.00
2023-01-21T06:25:01.585Z,37.30
2023-01-21T06:26:01.541Z,39.10
2023-01-21T06:27:01.549Z,37.80
2023-01-21T06:28:01.539Z,44.10
2023-01-21T06:29:01.565Z,44.00
2023-01-21T06:30:01.525Z,37.00
2023-01-21T06:31:01.659Z,41.20
2023-01-21T06:32:01.648Z,39.30
2023-01-21T06:33:01.465Z,39.90
2023-01-21T06:34:01.437Z,41.70
2023-01-21T06:35:01.420Z,41.40
2023-01-21T06:36:01.419Z,37.20
2023-01-21T06:37:01.420Z,37.20
2023-01-21T06:38:01.394Z,39.80
2023-01-21T06:39:01.373Z,38.00
2023-01-21T06:40:01.355Z,42.00
2023-01-21T06:41:01.366Z,38.90
2023-01-21T06:42:01.365Z,40.00
2023-01-21T06:43:01.352Z,36.10
2023-01-21T06:44:01.305Z,40.20
2023-01-21T06:45:01.312Z,33.00
2023-01-21T06:46:01.333Z,35.30
2023-01-21T06:47:01.994Z,47.00
2023-01-21T06:48:01.262Z,38.50
2023-01-21T06:49:01.250Z,34.70
2023-01-21T06:50:01.240Z,36.40
2023-01-21T06:51:01.295Z,32.00
2023-01-21T06:52:01.213Z,34.70
2023-01-21T06:53:01.197Z,32.00
2023-01-21T06:54:01.199Z,34.30
2023-01-21T06:55:01.167Z,35.30
2023-01-21T06:56:01.163Z,37.00
2023-01-21T06:57:01.160Z,37.00
2023-01-21T06:58:01.129Z,35.80
2023-01-21T06:59:01.119Z,37.60
2023-01-21T07:00:01.115Z,32.80
2023-01-21T07:01:01.113Z,44.30
2023-01-21T07:02:01.122Z,40.80
2023-01-21T07:03:01.127Z,33.90
2023-01-21T07:04:01.120Z,34.40
2023-01-21T07:05:01.103Z,31.60
2023-01-21T07:06:01.031Z,36.80
2023-01-21T07:07:01.027Z,30.70
2023-01-21T07:08:01.048Z,36.20
2023-01-21T07:09:01.021Z,35.60
2023-01-21T07:10:00.994Z,32.50
2023-01-21T07:11:00.977Z,33.10
2023-01-21T07:12:01.004Z,32.30
2023-01-21T07:13:00.959Z,32.20
2023-01-21T07:14:00.931Z,31.40
2023-01-21T07:15:00.966Z,32.80
2023-01-21T07:16:01.022Z,32.10
2023-01-21T07:17:00.945Z,36.70
2023-01-21T07:18:00.881Z,34.50
2023-01-21T07:19:00.882Z,31.40
2023-01-21T07:20:00.870Z,31.90
2023-01-21T07:21:00.849Z,33.80
2023-01-21T07:22:00.847Z,35.70
2023-01-21T07:23:00.826Z,32.80
2023-01-21T07:24:00.836Z,37.90
2023-01-21T07:25:00.821Z,32.30
2023-01-21T07:26:00.788Z,31.60
2023-01-21T07:27:00.815Z,31.20
2023-01-21T07:28:00.768Z,31.20
2023-01-21T07:29:02.088Z,34.00
2023-01-21T07:30:00.831Z,30.90
2023-01-21T07:31:00.817Z,36.70
2023-01-21T07:32:00.806Z,37.80
2023-01-21T07:33:01.667Z,28.30
2023-01-21T07:34:00.696Z,33.40
2023-01-21T07:35:00.680Z,31.50
2023-01-21T07:36:00.669Z,30.10
2023-01-21T07:37:00.682Z,38.00
2023-01-21T07:38:00.643Z,30.70
2023-01-21T07:39:00.652Z,32.30
2023-01-21T07:40:00.633Z,28.40
2023-01-21T07:41:00.601Z,32.00
2023-01-21T07:42:00.590Z,29.80
2023-01-21T07:43:00.589Z,33.90
2023-01-21T07:44:00.594Z,31.90
2023-01-21T07:45:00.567Z,32.20
2023-01-21T07:46:00.593Z,31.70
2023-01-21T07:47:00.525Z,30.70
2023-01-21T07:48:00.532Z,33.70
2023-01-21T07:49:00.495Z,31.60
2023-01-21T07:50:00.514Z,32.50
2023-01-21T07:51:00.531Z,30.50
2023-01-21T07:52:00.477Z,31.00
2023-01-21T07:53:00.460Z,33.70
2023-01-21T07:54:00.449Z,29.10
2023-01-21T07:55:00.450Z,34.80
2023-01-21T07:56:00.409Z,30.90
2023-01-21T07:57:00.407Z,33.50
2023-01-21T07:58:02.947Z,33.30
2023-01-21T07:59:00.402Z,47.20
2023-01-21T08:00:00.363Z,47.60
2023-01-21T08:01:00.404Z,32.90
2023-01-21T08:02:00.561Z,32.70
2023-01-21T08:03:00.378Z,30.10
2023-01-21T08:04:00.314Z,31.00
2023-01-21T08:05:00.309Z,37.00
2023-01-21T08:06:01.271Z,33.60
2023-01-21T08:07:00.321Z,37.80
2023-01-21T08:08:00.287Z,34.60
2023-01-21T08:09:00.257Z,36.70
2023-01-21T08:10:00.278Z,32.60
2023-01-21T08:11:01.167Z,33.60
2023-01-21T08:12:00.226Z,38.50
2023-01-21T08:13:00.219Z,31.20
2023-01-21T08:14:00.198Z,35.90
2023-01-21T08:15:00.196Z,39.30
2023-01-21T08:16:00.209Z,36.10
2023-01-21T08:17:00.161Z,35.40
2023-01-21T08:18:00.152Z,32.80
2023-01-21T08:19:00.160Z,36.80
2023-01-21T08:20:00.129Z,36.20
2023-01-21T08:21:00.113Z,33.10
2023-01-21T08:22:00.111Z,34.90
2023-01-21T08:23:00.121Z,30.30
2023-01-21T08:24:00.111Z,34.60
2023-01-21T08:25:00.049Z,33.70
2023-01-21T08:26:00.040Z,31.90
2023-01-21T08:27:00.063Z,34.50
2023-01-21T08:28:00.023Z,35.00
2023-01-21T08:29:00.008Z,35.20
2023-01-21T08:29:59.999Z,35.80
2023-01-21T08:31:00.016Z,38.10
2023-01-21T08:31:59.971Z,34.90
2023-01-21T08:32:59.943Z,32.60
2023-01-21T08:33:59.944Z,31.40
2023-01-21T08:34:59.927Z,36.30
2023-01-21T08:35:59.923Z,34.50
2023-01-21T08:36:59.896Z,30.70
2023-01-21T08:37:59.957Z,37.50
2023-01-21T08:38:59.895Z,37.70
2023-01-21T08:39:59.865Z,36.30
2023-01-21T08:40:59.860Z,32.40
2023-01-21T08:41:59.848Z,40.20
2023-01-21T08:42:59.854Z,34.70
2023-01-21T08:44:00.655Z,37.40
2023-01-21T08:44:59.812Z,31.50
2023-01-21T08:45:59.823Z,30.60
2023-01-21T08:46:59.804Z,36.90
2023-01-21T08:47:59.774Z,31.40
2023-01-21T08:48:59.757Z,32.80
2023-01-21T08:49:59.744Z,31.10
2023-01-21T08:50:59.848Z,36.10
2023-01-21T08:51:59.721Z,35.60
2023-01-21T08:52:59.716Z,36.10
2023-01-21T08:53:59.709Z,36.80
2023-01-21T08:54:59.677Z,36.30
2023-01-21T08:55:59.683Z,35.90
2023-01-21T08:56:59.659Z,34.90
2023-01-21T08:57:59.646Z,38.90
2023-01-21T08:58:59.650Z,44.00
2023-01-21T08:59:59.612Z,39.40
2023-01-21T09:00:59.631Z,34.90
2023-01-21T09:01:59.618Z,37.00
2023-01-21T09:03:55.333Z,34.10
2023-01-21T09:04:56.199Z,36.70
2023-01-21T09:05:56.193Z,36.20
2023-01-21T09:06:56.199Z,33.30
2023-01-21T09:07:58.075Z,34.60
2023-01-21T09:08:56.132Z,33.00
2023-01-21T09:09:56.138Z,38.20
2023-01-21T09:10:56.104Z,32.80
2023-01-21T09:11:56.119Z,35.40
2023-01-21T09:12:56.115Z,37.30
2023-01-21T09:13:56.069Z,37.70
2023-01-21T09:14:56.063Z,35.10
2023-01-21T09:15:56.052Z,33.30
2023-01-21T09:16:56.034Z,34.40
2023-01-21T09:17:56.053Z,31.50
2023-01-21T09:18:56.016Z,34.00
2023-01-21T09:19:56.022Z,32.90
2023-01-21T09:20:55.981Z,33.90
2023-01-21T09:21:55.997Z,35.80
2023-01-21T09:22:55.956Z,34.60
2023-01-21T09:23:55.961Z,37.20
2023-01-21T09:24:55.958Z,38.60
2023-01-21T09:25:55.923Z,35.50
2023-01-21T09:26:55.912Z,35.10
2023-01-21T09:27:55.916Z,37.90
2023-01-21T09:28:55.875Z,35.00
2023-01-21T09:29:55.896Z,34.80
2023-01-21T09:30:55.897Z,38.20
2023-01-21T09:31:55.885Z,34.10
2023-01-21T09:32:55.845Z,41.70
2023-01-21T09:33:55.849Z,35.70
2023-01-21T09:34:55.812Z,40.90
2023-01-21T09:35:55.813Z,43.40
2023-01-21T09:36:55.779Z,36.10
2023-01-21T09:37:55.778Z,35.70
2023-01-21T09:38:55.749Z,38.60
2023-01-21T09:39:55.776Z,34.80
2023-01-21T09:40:55.756Z,37.00
2023-01-21T09:41:55.735Z,34.50
2023-01-21T09:42:55.716Z,34.80
2023-01-21T09:43:55.687Z,35.40
2023-01-21T09:44:55.700Z,35.60
2023-01-21T09:45:55.698Z,34.90
2023-01-21T09:46:55.660Z,34.70
2023-01-21T09:47:55.673Z,36.70
2023-01-21T09:48:55.646Z,35.90
2023-01-21T09:49:55.630Z,31.30
2023-01-21T09:50:55.621Z,33.60
2023-01-21T09:51:55.612Z,33.40
2023-01-21T09:52:55.570Z,37.20
2023-01-21T09:53:55.598Z,35.60
2023-01-21T09:54:55.553Z,34.20
2023-01-21T09:55:55.562Z,37.10
2023-01-21T09:56:55.535Z,35.80
2023-01-21T09:57:55.512Z,36.90
2023-01-21T09:58:55.499Z,35.90
2023-01-21T09:59:55.493Z,35.80
2023-01-21T10:00:55.546Z,36.70
2023-01-21T10:01:55.484Z,36.10
2023-01-21T10:02:55.444Z,37.50
2023-01-21T10:03:55.449Z,38.00
2023-01-21T10:04:55.435Z,42.60
2023-01-21T10:05:55.449Z,41.60
2023-01-21T10:06:55.406Z,40.40
2023-01-21T10:07:55.394Z,36.30
2023-01-21T10:08:55.380Z,41.50
2023-01-21T10:09:55.378Z,44.20
2023-01-21T10:10:55.390Z,39.60
2023-01-21T10:11:55.353Z,44.60
2023-01-21T10:12:55.381Z,41.70
2023-01-21T10:13:55.370Z,49.30
2023-01-21T10:14:55.300Z,46.80
2023-01-21T10:15:55.336Z,50.40
2023-01-21T10:16:55.371Z,54.60
2023-01-21T10:17:55.291Z,46.80
2023-01-21T10:18:55.297Z,46.50
2023-01-21T10:19:55.273Z,38.20
2023-01-21T10:20:55.288Z,37.40
2023-01-21T10:21:55.222Z,40.00
2023-01-21T10:22:55.188Z,36.10
2023-01-21T10:23:55.246Z,36.40
2023-01-21T10:24:55.168Z,36.70
2023-01-21T10:25:55.207Z,34.30
2023-01-21T10:26:55.148Z,44.40
2023-01-21T10:27:55.129Z,34.20
2023-01-21T10:28:55.116Z,34.70
2023-01-21T10:29:55.125Z,36.70
2023-01-21T10:30:55.241Z,37.10
2023-01-21T10:31:55.147Z,35.50
2023-01-21T10:32:55.079Z,33.50
2023-01-21T10:33:55.066Z,36.80
2023-01-21T10:34:55.051Z,37.00
2023-01-21T10:35:55.130Z,36.60
2023-01-21T10:36:55.014Z,36.20
2023-01-21T10:37:55.039Z,39.00
2023-01-21T10:38:55.002Z,35.90
2023-01-21T10:39:54.991Z,33.70
2023-01-21T10:40:55.202Z,33.80
2023-01-21T10:41:54.954Z,36.40
2023-01-21T10:42:54.994Z,34.70
2023-01-21T10:43:54.948Z,34.90
2023-01-21T10:44:54.927Z,33.80
2023-01-21T10:45:54.995Z,31.80
2023-01-21T10:46:54.897Z,34.70
2023-01-21T10:47:54.915Z,31.40
2023-01-21T10:48:54.881Z,32.50
2023-01-21T10:49:54.858Z,29.90
2023-01-21T10:50:54.853Z,36.10
2023-01-21T10:51:54.845Z,41.00
2023-01-21T10:52:54.838Z,38.40
2023-01-21T10:53:54.807Z,36.30
2023-01-21T10:54:54.794Z,33.50
2023-01-21T10:55:54.798Z,31.50
2023-01-21T10:56:54.779Z,31.10
2023-01-21T10:57:54.773Z,32.50
2023-01-21T10:58:54.731Z,31.10
2023-01-21T10:59:54.732Z,43.50
2023-01-21T11:00:54.746Z,32.70
2023-01-21T11:01:54.727Z,33.10
2023-01-21T11:02:54.776Z,30.30
2023-01-21T11:03:54.671Z,33.30
2023-01-21T11:04:54.669Z,30.90
2023-01-21T11:05:54.676Z,31.00
2023-01-21T11:06:54.626Z,35.20
2023-01-21T11:07:54.638Z,31.40
2023-01-21T11:08:54.645Z,32.10
2023-01-21T11:09:54.593Z,30.20
2023-01-21T11:10:54.582Z,34.60
2023-01-21T11:11:54.590Z,36.40
2023-01-21T11:12:54.565Z,33.30
2023-01-21T11:13:54.556Z,29.40
2023-01-21T11:14:54.552Z,29.20
2023-01-21T11:15:54.605Z,29.80
2023-01-21T11:16:54.505Z,28.20
2023-01-21T11:17:54.516Z,38.70
2023-01-21T11:18:54.588Z,31.40
2023-01-21T11:19:54.473Z,33.20
2023-01-21T11:20:54.488Z,32.30
2023-01-21T11:21:54.439Z,33.40
2023-01-21T11:22:54.441Z,30.60
2023-01-21T11:23:54.440Z,33.90
2023-01-21T11:24:54.409Z,33.90
2023-01-21T11:25:54.413Z,29.20
2023-01-21T11:26:54.379Z,32.00
2023-01-21T11:27:54.383Z,26.80
2023-01-21T11:28:54.371Z,30.50
2023-01-21T11:29:54.396Z,30.10
2023-01-21T11:30:54.765Z,30.30
2023-01-21T11:31:54.407Z,30.40
2023-01-21T11:32:54.300Z,29.20
2023-01-21T11:33:54.319Z,35.80
2023-01-21T11:34:54.375Z,37.10
2023-01-21T11:35:54.286Z,36.00
2023-01-21T11:36:54.327Z,32.00
2023-01-21T11:37:54.262Z,32.60
2023-01-21T11:38:54.242Z,30.60
2023-01-21T11:39:54.257Z,29.10
2023-01-21T11:40:54.204Z,30.30
2023-01-21T11:41:54.190Z,28.80
2023-01-21T11:42:54.212Z,30.20
2023-01-21T11:43:54.179Z,30.60
2023-01-21T11:44:54.178Z,28.80
2023-01-21T11:45:54.150Z,31.00
2023-01-21T11:46:54.158Z,31.50
2023-01-21T11:47:54.119Z,32.60
2023-01-21T11:48:54.119Z,29.10
2023-01-21T11:49:54.111Z,33.40
2023-01-21T11:50:54.169Z,32.10
2023-01-21T11:51:54.070Z,33.80
2023-01-21T11:52:54.109Z,31.60
2023-01-21T11:53:54.062Z,36.20
2023-01-21T11:54:54.035Z,32.80
2023-01-21T11:55:54.030Z,30.20
2023-01-21T11:56:54.059Z,32.90
2023-01-21T11:57:54.025Z,30.00
2023-01-21T11:58:53.971Z,29.80
2023-01-21T11:59:53.986Z,34.30
2023-01-21T12:00:53.975Z,31.20
2023-01-21T12:01:53.940Z,29.30
2023-01-21T12:02:53.989Z,31.30
2023-01-21T12:03:53.992Z,32.20
2023-01-21T12:04:53.920Z,31.80
2023-01-21T12:05:53.954Z,28.90
2023-01-21T12:06:53.879Z,30.20
2023-01-21T12:07:53.866Z,38.80
2023-01-21T12:08:53.851Z,32.10
2023-01-21T12:09:53.862Z,31.10
2023-01-21T12:10:53.855Z,30.20
2023-01-21T12:11:53.820Z,30.10
2023-01-21T12:12:53.800Z,27.90
2023-01-21T12:13:53.818Z,27.90
2023-01-21T12:14:53.770Z,32.10
2023-01-21T12:15:53.859Z,28.60
2023-01-21T12:16:53.749Z,32.70
2023-01-21T12:17:53.782Z,29.60
2023-01-21T12:18:53.731Z,30.00
2023-01-21T12:19:53.711Z,30.50
2023-01-21T12:20:53.709Z,29.80
2023-01-21T12:21:53.708Z,26.30
2023-01-21T12:22:53.683Z,31.30
2023-01-21T12:23:54.524Z,28.10
2023-01-21T12:24:53.671Z,30.00
2023-01-21T12:25:53.643Z,32.20
2023-01-21T12:26:53.641Z,29.30
2023-01-21T12:27:53.619Z,30.30
2023-01-21T12:28:53.616Z,28.40
2023-01-21T12:29:53.591Z,31.80
2023-01-21T12:30:53.694Z,29.90
2023-01-21T12:31:53.623Z,28.00
2023-01-21T12:32:53.584Z,31.10
2023-01-21T12:33:53.542Z,30.50
2023-01-21T12:34:53.520Z,28.90
2023-01-21T12:35:53.524Z,30.30
2023-01-21T12:36:53.638Z,26.40
2023-01-21T12:37:53.508Z,27.60
2023-01-21T12:38:53.471Z,27.40
2023-01-21T12:39:53.465Z,25.60
2023-01-21T12:40:53.481Z,25.40
2023-01-21T12:41:53.431Z,25.50
2023-01-21T12:42:53.433Z,25.90
2023-01-21T12:43:53.404Z,25.10
2023-01-21T12:44:53.403Z,24.50
2023-01-21T12:45:53.408Z,25.50
2023-01-21T12:46:53.523Z,27.10
2023-01-21T12:47:53.438Z,25.50
2023-01-21T12:48:53.390Z,27.00
2023-01-21T12:49:53.360Z,25.70
2023-01-21T12:50:53.438Z,25.30
2023-01-21T12:51:53.329Z,25.80
2023-01-21T12:52:53.322Z,26.90